createdAt,value
2019-05-23T00:04:32.716Z,31.60
2019-05-23T00:09:46.170Z,31.70
2019-05-23T00:14:58.546Z,31.80
2019-05-23T00:20:07.558Z,31.80
2019-05-23T00:25:16.784Z,31.80
2019-05-23T00:30:26.401Z,31.90
2019-05-23T00:35:34.797Z,31.90
2019-05-23T00:40:46.191Z,32.00
2019-05-23T00:45:56.743Z,32.10
2019-05-23T00:51:05.452Z,32.20
2019-05-23T00:56:17.692Z,32.30
2019-05-23T01:01:24.436Z,32.30
2019-05-23T01:06:34.457Z,32.40
2019-05-23T01:11:42.684Z,32.50
2019-05-23T01:16:50.864Z,32.50
2019-05-23T01:22:01.363Z,32.60
2019-05-23T01:27:09.844Z,32.70
2019-05-23T01:38:10.117Z,32.90
2019-05-23T01:43:20.682Z,32.70
2019-05-23T01:58:03.315Z,32.50
2019-05-23T02:03:13.956Z,32.30
2019-05-23T02:08:21.491Z,32.80
2019-05-23T02:13:32.272Z,33.20
2019-05-23T02:18:46.328Z,33.50
2019-05-23T02:23:55.540Z,33.60
2019-05-23T02:29:05.018Z,33.70
2019-05-23T02:34:13.760Z,33.80
2019-05-23T02:39:43.927Z,33.90
2019-05-23T02:44:52.883Z,34.00
2019-05-23T02:50:01.373Z,34.10
2019-05-23T02:55:11.311Z,34.30
2019-05-23T03:00:23.241Z,34.40
2019-05-23T03:05:33.060Z,34.50
2019-05-23T03:10:42.589Z,34.60
2019-05-23T03:15:50.746Z,34.70
2019-05-23T03:21:02.335Z,34.80
2019-05-23T03:26:12.352Z,35.00
2019-05-23T03:31:30.056Z,35.00
2019-05-23T03:36:32.997Z,35.20
2019-05-23T03:41:42.167Z,35.30
2019-05-23T03:46:51.471Z,35.40
2019-05-23T03:51:59.904Z,35.50
2019-05-23T03:57:10.704Z,35.70
2019-05-23T04:02:19.576Z,35.80
2019-05-23T04:07:27.680Z,36.00
2019-05-23T04:12:36.765Z,36.10
2019-05-23T04:17:44.712Z,36.20
2019-05-23T04:22:53.072Z,36.30
2019-05-23T04:28:01.225Z,36.40
2019-05-23T04:33:10.982Z,36.50
2019-05-23T04:38:19.288Z,36.60
2019-05-23T04:43:26.843Z,36.70
2019-05-23T04:48:39.316Z,36.90
2019-05-23T04:53:47.598Z,37.10
2019-05-23T04:58:55.823Z,37.20
2019-05-23T05:04:07.948Z,37.30
2019-05-23T05:09:16.821Z,37.40
2019-05-23T05:14:25.141Z,37.40
2019-05-23T05:19:35.135Z,37.50
2019-05-23T05:24:42.937Z,37.60
2019-05-23T05:29:50.421Z,37.60
2019-05-23T05:34:58.134Z,37.60
2019-05-23T05:40:07.272Z,37.80
2019-05-23T05:45:16.613Z,37.90
2019-05-23T05:50:26.244Z,38.00
2019-05-23T05:55:33.637Z,38.20
2019-05-23T06:00:42.636Z,38.20
2019-05-23T06:05:51.665Z,38.20
2019-05-23T06:11:00.347Z,38.10
2019-05-23T06:16:08.760Z,38.10
2019-05-23T06:21:18.115Z,38.20
2019-05-23T06:26:25.830Z,38.30
2019-05-23T06:38:12.547Z,38.60
2019-05-23T06:43:24.418Z,38.00
2019-05-23T06:48:36.005Z,38.40
2019-05-23T06:53:44.237Z,38.50
2019-05-23T06:58:53.143Z,38.60
2019-05-23T07:04:04.180Z,38.70
2019-05-23T07:09:16.334Z,38.70
2019-05-23T07:14:28.586Z,38.70
2019-05-23T07:19:43.257Z,38.60
2019-05-23T07:24:58.655Z,38.50
2019-05-23T07:30:11.240Z,38.50
2019-05-23T07:35:22.613Z,38.50
2019-05-23T07:40:30.374Z,38.50
2019-05-23T07:45:54.120Z,38.60
2019-05-23T07:51:03.448Z,38.60
2019-05-23T07:56:14.821Z,38.70
2019-05-23T08:01:29.922Z,38.60
2019-05-23T08:06:41.980Z,38.90
2019-05-23T08:11:56.630Z,38.90
2019-05-23T08:18:08.434Z,38.80
2019-05-23T08:22:17.555Z,38.80
2019-05-23T08:27:28.554Z,38.70
2019-05-23T08:32:42.733Z,38.90
2019-05-23T08:37:52.094Z,38.70
2019-05-23T08:43:03.779Z,38.70
2019-05-23T08:48:13.513Z,38.60
2019-05-23T08:53:32.099Z,38.60
2019-05-23T08:58:51.245Z,38.50
2019-05-23T09:04:09.950Z,38.40
2019-05-23T09:09:29.000Z,38.30
2019-05-23T09:14:34.363Z,38.30
2019-05-23T09:19:49.774Z,38.50
2019-05-23T09:25:02.075Z,38.30
2019-05-23T09:30:12.129Z,38.70
2019-05-23T09:35:24.900Z,38.90
2019-05-23T09:40:39.883Z,38.90
2019-05-23T09:45:47.067Z,38.80
2019-05-23T09:50:56.291Z,38.60
2019-05-23T09:56:13.448Z,38.00
2019-05-23T10:01:16.554Z,37.90
2019-05-23T10:06:25.595Z,38.00
2019-05-23T10:11:38.218Z,37.90
2019-05-23T10:16:47.527Z,37.40
2019-05-23T10:21:57.869Z,37.70
2019-05-23T10:27:12.617Z,37.50
2019-05-23T10:32:21.489Z,37.20
2019-05-23T10:37:34.000Z,36.70
2019-05-23T10:42:43.193Z,36.60
2019-05-23T10:47:52.265Z,36.40
2019-05-23T10:53:00.318Z,36.30
2019-05-23T10:58:09.232Z,36.20
2019-05-23T11:03:16.558Z,35.90
2019-05-23T11:08:29.242Z,35.70
2019-05-23T11:13:35.428Z,35.30
2019-05-23T11:18:44.488Z,35.20
2019-05-23T11:23:53.877Z,35.00
2019-05-23T11:29:01.911Z,34.80
2019-05-23T11:34:09.699Z,34.70
2019-05-23T11:39:19.857Z,34.60
2019-05-23T11:44:27.492Z,34.40
2019-05-23T11:49:45.316Z,34.30
2019-05-23T11:54:47.167Z,34.30
2019-05-23T11:59:57.638Z,34.20
2019-05-23T12:05:10.855Z,34.20
2019-05-23T12:10:19.877Z,34.10
2019-05-23T12:15:28.921Z,33.90
2019-05-23T12:20:37.079Z,33.90
2019-05-23T12:25:57.095Z,33.70
2019-05-23T12:31:07.110Z,33.70
2019-05-23T12:36:19.124Z,33.70
2019-05-23T12:41:28.245Z,33.60
2019-05-23T12:46:35.958Z,33.50
2019-05-23T12:51:50.958Z,33.50
2019-05-23T12:56:58.814Z,33.50
2019-05-23T13:02:08.026Z,33.40
2019-05-23T13:07:33.209Z,33.30
2019-05-23T13:12:27.535Z,33.10
2019-05-23T13:17:36.156Z,33.10
2019-05-23T13:22:43.619Z,33.00
2019-05-23T13:27:51.335Z,33.00
2019-05-23T13:32:58.793Z,33.00
2019-05-23T13:38:10.453Z,32.90
2019-05-23T13:43:20.396Z,32.80
2019-05-23T13:48:31.417Z,32.70
2019-05-23T13:53:40.529Z,32.60
2019-05-23T13:58:52.379Z,32.60
2019-05-23T14:04:00.338Z,32.60
2019-05-23T14:09:10.314Z,32.60
2019-05-23T14:14:18.164Z,32.50
2019-05-23T14:19:29.541Z,32.50
2019-05-23T14:24:37.822Z,32.40
2019-05-23T14:29:44.278Z,32.40
2019-05-23T14:34:53.229Z,32.30
2019-05-23T14:40:03.179Z,32.20
2019-05-23T14:45:12.657Z,32.20
2019-05-23T14:50:21.705Z,32.20
2019-05-23T14:55:29.691Z,32.20
2019-05-23T15:00:38.283Z,32.20
2019-05-23T15:05:45.987Z,32.20
2019-05-23T15:10:54.339Z,32.20
2019-05-23T15:16:02.706Z,32.10
2019-05-23T15:21:10.076Z,32.10
2019-05-23T15:26:22.774Z,32.10
2019-05-23T15:31:26.483Z,32.00
2019-05-23T15:36:33.902Z,32.00
2019-05-23T15:41:42.083Z,32.00
2019-05-23T15:46:50.152Z,32.00
2019-05-23T15:52:00.764Z,31.90
2019-05-23T16:02:39.561Z,31.90
2019-05-23T16:07:48.142Z,31.90
2019-05-23T16:12:55.718Z,31.90
2019-05-23T16:18:03.468Z,31.80
2019-05-23T16:23:12.118Z,31.70
2019-05-23T16:28:20.441Z,31.70
2019-05-23T16:33:28.828Z,31.70
2019-05-23T16:38:36.958Z,31.70
2019-05-23T16:43:44.824Z,31.60
2019-05-23T16:48:53.013Z,31.60
2019-05-23T16:54:01.549Z,31.50
2019-05-23T16:59:10.948Z,31.50
2019-05-23T17:04:18.859Z,31.50
2019-05-23T17:09:31.335Z,31.50
2019-05-23T17:14:38.176Z,31.50
2019-05-23T17:19:47.332Z,31.40
2019-05-23T17:24:56.097Z,31.40
2019-05-23T17:30:08.533Z,31.40
2019-05-23T17:35:15.005Z,31.30
2019-05-23T17:40:25.389Z,31.30
2019-05-23T17:45:33.076Z,31.30
2019-05-23T17:50:41.033Z,31.30
2019-05-23T17:55:49.156Z,31.30
2019-05-23T18:00:57.164Z,31.30
2019-05-23T18:06:05.282Z,31.20
2019-05-23T18:11:13.409Z,31.20
2019-05-23T18:16:21.224Z,31.20
2019-05-23T18:21:30.704Z,31.20
2019-05-23T18:26:39.276Z,31.20
2019-05-23T18:31:47.940Z,31.20
2019-05-23T18:36:57.477Z,31.20
2019-05-23T18:42:07.295Z,31.10
2019-05-23T18:47:16.669Z,31.10
2019-05-23T18:52:24.686Z,31.10
2019-05-23T18:57:32.844Z,31.00
2019-05-23T19:02:41.325Z,31.00
2019-05-23T19:07:49.402Z,31.00
2019-05-23T19:12:57.596Z,31.00
2019-05-23T19:18:05.607Z,31.00
2019-05-23T19:23:13.872Z,31.00
2019-05-23T19:28:21.674Z,30.90
2019-05-23T19:33:29.544Z,30.90
2019-05-23T19:38:37.254Z,30.90
2019-05-23T19:43:48.027Z,30.90
2019-05-23T19:48:55.785Z,30.90
2019-05-23T19:54:04.146Z,30.90
2019-05-23T19:59:13.035Z,30.90
2019-05-23T20:04:21.013Z,30.90
2019-05-23T20:09:29.557Z,30.80
2019-05-23T20:14:36.758Z,30.80
2019-05-23T20:19:45.216Z,30.80
2019-05-23T20:24:52.803Z,30.80
2019-05-23T20:30:00.350Z,30.70
2019-05-23T20:35:08.276Z,30.70
2019-05-23T20:40:16.815Z,30.70
2019-05-23T20:45:24.836Z,30.70
2019-05-23T20:50:32.811Z,30.70
2019-05-23T20:55:41.527Z,30.70
2019-05-23T21:00:50.627Z,30.60
2019-05-23T21:05:58.778Z,30.60
2019-05-23T21:11:06.797Z,30.70
2019-05-23T21:16:14.416Z,30.60
2019-05-23T21:21:22.178Z,30.60
2019-05-23T21:26:30.048Z,30.60
2019-05-23T21:31:37.973Z,30.60
2019-05-23T21:36:46.306Z,30.60
2019-05-23T21:41:54.908Z,30.60
2019-05-23T21:47:02.588Z,30.50
2019-05-23T21:52:10.751Z,30.50
2019-05-23T21:57:18.747Z,30.50
2019-05-23T22:02:28.670Z,30.50
2019-05-23T22:07:37.073Z,30.50
2019-05-23T22:12:45.559Z,30.50
2019-05-23T22:17:53.066Z,30.50
2019-05-23T22:23:00.673Z,30.50
2019-05-23T22:28:08.061Z,30.50
2019-05-23T22:33:16.747Z,30.50
2019-05-23T22:38:25.204Z,30.40
2019-05-23T22:43:33.163Z,30.40
2019-05-23T22:48:41.022Z,30.40
2019-05-23T22:53:49.210Z,30.40
2019-05-23T22:58:57.233Z,30.40
2019-05-23T23:04:05.815Z,30.40
2019-05-23T23:09:13.291Z,30.40
2019-05-23T23:14:21.383Z,30.40
2019-05-23T23:19:29.574Z,30.40
2019-05-23T23:24:57.114Z,30.40
2019-05-23T23:30:05.814Z,30.40
2019-05-23T23:35:14.269Z,30.30
2019-05-23T23:40:23.517Z,30.40
2019-05-23T23:45:32.630Z,30.40
2019-05-23T23:50:41.526Z,30.40
2019-05-23T23:55:50.994Z,30.40
